sensor_id;sensor_type;location;lat;lon;timestamp;pressure;altitude;pressure_sealevel;temperature;humidity
68179;BME280;69812;42.632;23.440;2023-07-22T00:00:47;94990.31;;;23.46;52.42
68179;BME280;69812;42.632;23.440;2023-07-22T00:03:12;94998.03;;;23.41;52.76
68179;BME280;69812;42.632;23.440;2023-07-22T00:05:40;95010.81;;;23.31;52.88
68179;BME280;69812;42.632;23.440;2023-07-22T00:08:05;95019.19;;;23.21;53.70
68179;BME280;69812;42.632;23.440;2023-07-22T00:10:33;95034.28;;;23.19;53.80
68179;BME280;69812;42.632;23.440;2023-07-22T00:13:03;95034.88;;;23.21;53.91
68179;BME280;69812;42.632;23.440;2023-07-22T00:15:28;95028.84;;;23.21;54.52
68179;BME280;69812;42.632;23.440;2023-07-22T00:17:54;95025.81;;;23.24;54.25
68179;BME280;69812;42.632;23.440;2023-07-22T00:20:23;95021.09;;;23.07;54.46
68179;BME280;69812;42.632;23.440;2023-07-22T00:22:48;95017.03;;;23.11;54.60
68179;BME280;69812;42.632;23.440;2023-07-22T00:25:18;95036.06;;;23.25;54.34
68179;BME280;69812;42.632;23.440;2023-07-22T00:27:43;95035.69;;;23.22;54.76
68179;BME280;69812;42.632;23.440;2023-07-22T00:30:14;95026.31;;;23.07;54.67
68179;BME280;69812;42.632;23.440;2023-07-22T00:32:50;95040.50;;;22.93;55.54
68179;BME280;69812;42.632;23.440;2023-07-22T00:35:18;95031.31;;;22.84;55.81
68179;BME280;69812;42.632;23.440;2023-07-22T00:37:46;95022.78;;;22.63;56.83
68179;BME280;69812;42.632;23.440;2023-07-22T00:40:14;95028.97;;;22.75;56.43
68179;BME280;69812;42.632;23.440;2023-07-22T00:42:40;95042.44;;;22.72;56.50
68179;BME280;69812;42.632;23.440;2023-07-22T00:45:08;95024.47;;;22.83;56.09
68179;BME280;69812;42.632;23.440;2023-07-22T00:47:37;95036.41;;;22.72;56.98
68179;BME280;69812;42.632;23.440;2023-07-22T00:50:06;95028.78;;;22.39;58.39
68179;BME280;69812;42.632;23.440;2023-07-22T00:52:35;95035.66;;;22.20;58.23
68179;BME280;69812;42.632;23.440;2023-07-22T00:55:06;95035.13;;;22.04;58.56
68179;BME280;69812;42.632;23.440;2023-07-22T00:57:37;95044.81;;;21.97;58.84
68179;BME280;69812;42.632;23.440;2023-07-22T01:00:06;95050.56;;;22.12;58.72
68179;BME280;69812;42.632;23.440;2023-07-22T01:02:32;95048.84;;;21.93;59.50
68179;BME280;69812;42.632;23.440;2023-07-22T01:05:00;95050.50;;;21.67;60.37
68179;BME280;69812;42.632;23.440;2023-07-22T01:07:31;95048.72;;;21.54;61.36
68179;BME280;69812;42.632;23.440;2023-07-22T01:09:59;95041.31;;;21.45;61.86
68179;BME280;69812;42.632;23.440;2023-07-22T01:12:24;95041.69;;;21.35;62.74
68179;BME280;69812;42.632;23.440;2023-07-22T01:14:50;95035.25;;;21.38;61.79
68179;BME280;69812;42.632;23.440;2023-07-22T01:17:15;95037.88;;;21.11;63.54
68179;BME280;69812;42.632;23.440;2023-07-22T01:19:46;95029.22;;;20.77;63.57
68179;BME280;69812;42.632;23.440;2023-07-22T01:22:13;95025.81;;;20.70;63.95
68179;BME280;69812;42.632;23.440;2023-07-22T01:24:38;95010.50;;;20.53;65.04
68179;BME280;69812;42.632;23.440;2023-07-22T01:27:09;95013.28;;;20.39;65.29
68179;BME280;69812;42.632;23.440;2023-07-22T01:29:35;95034.69;;;20.27;65.76
68179;BME280;69812;42.632;23.440;2023-07-22T01:32:01;95029.31;;;20.36;64.71
68179;BME280;69812;42.632;23.440;2023-07-22T01:34:27;95027.84;;;20.13;65.19
68179;BME280;69812;42.632;23.440;2023-07-22T01:37:00;95029.03;;;20.04;66.55
68179;BME280;69812;42.632;23.440;2023-07-22T01:39:25;95029.69;;;20.19;65.54
68179;BME280;69812;42.632;23.440;2023-07-22T01:41:55;95023.63;;;20.19;66.23
68179;BME280;69812;42.632;23.440;2023-07-22T01:44:25;95025.81;;;20.02;67.24
68179;BME280;69812;42.632;23.440;2023-07-22T01:47:00;95018.13;;;19.87;68.14
68179;BME280;69812;42.632;23.440;2023-07-22T01:49:28;95005.97;;;19.66;68.73
68179;BME280;69812;42.632;23.440;2023-07-22T01:52:03;95005.56;;;19.69;68.51
68179;BME280;69812;42.632;23.440;2023-07-22T01:54:29;95017.63;;;19.70;68.69
68179;BME280;69812;42.632;23.440;2023-07-22T01:56:57;95014.16;;;19.63;68.24
68179;BME280;69812;42.632;23.440;2023-07-22T01:59:24;95007.66;;;19.45;68.35
68179;BME280;69812;42.632;23.440;2023-07-22T02:01:52;95005.53;;;19.62;67.96
68179;BME280;69812;42.632;23.440;2023-07-22T02:04:20;95007.22;;;19.70;68.77
68179;BME280;69812;42.632;23.440;2023-07-22T02:06:46;95005.41;;;19.70;68.37
68179;BME280;69812;42.632;23.440;2023-07-22T02:09:11;94992.13;;;19.59;68.74
68179;BME280;69812;42.632;23.440;2023-07-22T02:11:39;95000.56;;;19.67;68.80
68179;BME280;69812;42.632;23.440;2023-07-22T02:14:05;95002.72;;;19.57;69.97
68179;BME280;69812;42.632;23.440;2023-07-22T02:16:36;95002.81;;;19.42;70.52
68179;BME280;69812;42.632;23.440;2023-07-22T02:19:19;94999.91;;;19.24;70.69
68179;BME280;69812;42.632;23.440;2023-07-22T02:21:47;95012.28;;;19.15;71.75
68179;BME280;69812;42.632;23.440;2023-07-22T02:24:24;95014.56;;;19.32;70.86
68179;BME280;69812;42.632;23.440;2023-07-22T02:27:00;95019.38;;;19.28;71.50
68179;BME280;69812;42.632;23.440;2023-07-22T02:29:26;95007.72;;;19.24;71.79
68179;BME280;69812;42.632;23.440;2023-07-22T02:31:56;95016.75;;;19.28;71.15
68179;BME280;69812;42.632;23.440;2023-07-22T02:34:29;95021.72;;;19.23;71.09
68179;BME280;69812;42.632;23.440;2023-07-22T02:36:55;95024.97;;;19.03;71.88
68179;BME280;69812;42.632;23.440;2023-07-22T02:39:25;95010.06;;;18.91;71.73
68179;BME280;69812;42.632;23.440;2023-07-22T02:41:56;95024.91;;;18.97;71.87
68179;BME280;69812;42.632;23.440;2023-07-22T02:44:24;95025.66;;;18.91;72.84
68179;BME280;69812;42.632;23.440;2023-07-22T02:46:49;95019.16;;;18.80;72.32
68179;BME280;69812;42.632;23.440;2023-07-22T02:49:20;95036.31;;;18.74;73.38
68179;BME280;69812;42.632;23.440;2023-07-22T02:51:45;95024.78;;;18.62;74.06
68179;BME280;69812;42.632;23.440;2023-07-22T02:54:11;95030.69;;;18.34;74.19
68179;BME280;69812;42.632;23.440;2023-07-22T02:56:39;95022.16;;;18.40;74.23
68179;BME280;69812;42.632;23.440;2023-07-22T02:59:04;95029.69;;;18.50;74.84
68179;BME280;69812;42.632;23.440;2023-07-22T03:01:29;95023.59;;;18.43;75.44
68179;BME280;69812;42.632;23.440;2023-07-22T03:03:55;95034.75;;;18.37;75.94
68179;BME280;69812;42.632;23.440;2023-07-22T03:06:20;95039.72;;;18.38;77.38
68179;BME280;69812;42.632;23.440;2023-07-22T03:08:53;95041.13;;;18.56;76.68
68179;BME280;69812;42.632;23.440;2023-07-22T03:11:21;95036.91;;;18.55;76.16
68179;BME280;69812;42.632;23.440;2023-07-22T03:13:50;95032.44;;;18.48;75.69
68179;BME280;69812;42.632;23.440;2023-07-22T03:16:28;95028.44;;;18.46;75.97
68179;BME280;69812;42.632;23.440;2023-07-22T03:18:57;95027.09;;;18.50;76.71
68179;BME280;69812;42.632;23.440;2023-07-22T03:21:31;95044.94;;;18.60;76.10
68179;BME280;69812;42.632;23.440;2023-07-22T03:23:59;95036.25;;;18.67;75.78
68179;BME280;69812;42.632;23.440;2023-07-22T03:26:29;95032.28;;;18.72;74.69
68179;BME280;69812;42.632;23.440;2023-07-22T03:28:54;95037.91;;;18.75;75.37
68179;BME280;69812;42.632;23.440;2023-07-22T03:31:20;95036.75;;;18.78;75.00
68179;BME280;69812;42.632;23.440;2023-07-22T03:33:49;95024.72;;;18.77;75.49
68179;BME280;69812;42.632;23.440;2023-07-22T03:36:20;95036.16;;;19.04;74.97
68179;BME280;69812;42.632;23.440;2023-07-22T03:38:47;95039.78;;;19.31;74.62
68179;BME280;69812;42.632;23.440;2023-07-22T03:41:13;95023.03;;;19.40;74.13
68179;BME280;69812;42.632;23.440;2023-07-22T03:43:41;95043.22;;;19.66;73.58
68179;BME280;69812;42.632;23.440;2023-07-22T03:46:10;95058.63;;;19.96;72.47
68179;BME280;69812;42.632;23.440;2023-07-22T03:48:38;95037.06;;;20.16;69.69
68179;BME280;69812;42.632;23.440;2023-07-22T03:51:06;95058.13;;;20.27;69.68
68179;BME280;69812;42.632;23.440;2023-07-22T03:53:31;95079.28;;;20.52;69.40
68179;BME280;69812;42.632;23.440;2023-07-22T03:56:07;95086.38;;;20.72;69.50
68179;BME280;69812;42.632;23.440;2023-07-22T03:58:42;95084.84;;;21.78;67.22
68179;BME280;69812;42.632;23.440;2023-07-22T04:01:37;95086.56;;;23.01;62.95
68179;BME280;69812;42.632;23.440;2023-07-22T04:04:14;95090.88;;;23.70;61.12
68179;BME280;69812;42.632;23.440;2023-07-22T04:06:42;95090.72;;;24.76;57.20
68179;BME280;69812;42.632;23.440;2023-07-22T04:09:10;95092.75;;;25.46;54.51
68179;BME280;69812;42.632;23.440;2023-07-22T04:11:35;95096.94;;;26.30;52.79
68179;BME280;69812;42.632;23.440;2023-07-22T04:14:05;95083.97;;;27.09;50.77
68179;BME280;69812;42.632;23.440;2023-07-22T04:16:41;95093.31;;;28.23;48.59
68179;BME280;69812;42.632;23.440;2023-07-22T04:19:17;95079.84;;;29.18;45.13
68179;BME280;69812;42.632;23.440;2023-07-22T04:21:50;95092.41;;;30.13;43.22
68179;BME280;69812;42.632;23.440;2023-07-22T04:24:18;95080.81;;;30.93;41.20
68179;BME280;69812;42.632;23.440;2023-07-22T04:26:46;95085.84;;;31.81;39.17
68179;BME280;69812;42.632;23.440;2023-07-22T04:29:13;95092.16;;;32.16;37.22
68179;BME280;69812;42.632;23.440;2023-07-22T04:31:41;95097.22;;;32.12;37.34
68179;BME280;69812;42.632;23.440;2023-07-22T04:34:08;95092.03;;;33.02;36.38
68179;BME280;69812;42.632;23.440;2023-07-22T04:36:36;95094.03;;;33.89;35.31
68179;BME280;69812;42.632;23.440;2023-07-22T04:39:02;95099.03;;;34.68;33.23
68179;BME280;69812;42.632;23.440;2023-07-22T04:41:30;95094.69;;;35.48;31.90
68179;BME280;69812;42.632;23.440;2023-07-22T04:43:58;95102.78;;;36.22;30.55
68179;BME280;69812;42.632;23.440;2023-07-22T04:46:24;95114.63;;;36.85;29.79
68179;BME280;69812;42.632;23.440;2023-07-22T04:48:49;95095.28;;;37.25;28.51
68179;BME280;69812;42.632;23.440;2023-07-22T04:51:14;95108.44;;;37.57;27.82
68179;BME280;69812;42.632;23.440;2023-07-22T04:53:40;95109.25;;;38.20;27.57
68179;BME280;69812;42.632;23.440;2023-07-22T04:56:05;95098.88;;;38.85;26.49
68179;BME280;69812;42.632;23.440;2023-07-22T04:58:30;95093.53;;;39.02;25.45
68179;BME280;69812;42.632;23.440;2023-07-22T05:00:55;95092.75;;;39.46;25.67
68179;BME280;69812;42.632;23.440;2023-07-22T05:03:33;95090.59;;;39.77;25.10
68179;BME280;69812;42.632;23.440;2023-07-22T05:05:58;95107.88;;;40.53;23.36
68179;BME280;69812;42.632;23.440;2023-07-22T05:08:27;95095.22;;;41.04;22.51
68179;BME280;69812;42.632;23.440;2023-07-22T05:10:55;95115.50;;;41.44;21.81
68179;BME280;69812;42.632;23.440;2023-07-22T05:13:20;95112.16;;;41.47;21.63
68179;BME280;69812;42.632;23.440;2023-07-22T05:15:53;95111.44;;;40.66;21.61
68179;BME280;69812;42.632;23.440;2023-07-22T05:18:18;95119.53;;;40.36;22.76
68179;BME280;69812;42.632;23.440;2023-07-22T05:20:44;95124.31;;;40.60;21.74
68179;BME280;69812;42.632;23.440;2023-07-22T05:23:10;95119.06;;;40.94;21.61
68179;BME280;69812;42.632;23.440;2023-07-22T05:45:53;95123.91;;;42.21;20.70
68179;BME280;69812;42.632;23.440;2023-07-22T05:48:20;95112.38;;;42.45;20.10
68179;BME280;69812;42.632;23.440;2023-07-22T05:50:49;95119.53;;;42.91;20.16
68179;BME280;69812;42.632;23.440;2023-07-22T05:53:21;95124.06;;;43.55;19.25
68179;BME280;69812;42.632;23.440;2023-07-22T05:55:47;95119.38;;;44.60;17.89
68179;BME280;69812;42.632;23.440;2023-07-22T05:58:16;95119.31;;;45.11;17.95
68179;BME280;69812;42.632;23.440;2023-07-22T06:00:53;95129.41;;;45.92;16.89
68179;BME280;69812;42.632;23.440;2023-07-22T06:03:25;95106.91;;;46.38;16.20
68179;BME280;69812;42.632;23.440;2023-07-22T06:05:55;95117.38;;;45.89;16.61
68179;BME280;69812;42.632;23.440;2023-07-22T06:08:23;95127.13;;;46.17;16.68
68179;BME280;69812;42.632;23.440;2023-07-22T06:11:16;95121.81;;;45.59;17.00
68179;BME280;69812;42.632;23.440;2023-07-22T06:13:44;95132.41;;;45.64;16.70
68179;BME280;69812;42.632;23.440;2023-07-22T06:16:13;95139.03;;;46.59;16.34
68179;BME280;69812;42.632;23.440;2023-07-22T06:18:40;95148.72;;;47.43;15.94
68179;BME280;69812;42.632;23.440;2023-07-22T06:21:08;95135.22;;;48.25;15.11
68179;BME280;69812;42.632;23.440;2023-07-22T06:23:44;95151.03;;;49.23;13.89
68179;BME280;69812;42.632;23.440;2023-07-22T06:26:14;95155.53;;;49.82;13.55
68179;BME280;69812;42.632;23.440;2023-07-22T06:28:42;95159.88;;;50.08;13.61
68179;BME280;69812;42.632;23.440;2023-07-22T06:31:07;95157.16;;;50.04;13.68
68179;BME280;69812;42.632;23.440;2023-07-22T06:33:53;95169.66;;;50.30;12.95
68179;BME280;69812;42.632;23.440;2023-07-22T06:36:18;95157.56;;;50.57;13.62
68179;BME280;69812;42.632;23.440;2023-07-22T06:38:49;95168.47;;;50.64;12.70
68179;BME280;69812;42.632;23.440;2023-07-22T06:41:21;95157.03;;;48.29;14.48
68179;BME280;69812;42.632;23.440;2023-07-22T06:43:49;95153.19;;;48.89;14.28
68179;BME280;69812;42.632;23.440;2023-07-22T06:46:18;95164.41;;;49.57;14.12
68179;BME280;69812;42.632;23.440;2023-07-22T06:48:46;95164.88;;;49.70;13.73
68179;BME280;69812;42.632;23.440;2023-07-22T06:51:21;95159.75;;;49.61;13.76
68179;BME280;69812;42.632;23.440;2023-07-22T06:53:49;95168.50;;;50.42;13.36
68179;BME280;69812;42.632;23.440;2023-07-22T06:56:20;95163.19;;;51.55;12.63
68179;BME280;69812;42.632;23.440;2023-07-22T06:58:55;95163.25;;;51.45;12.88
68179;BME280;69812;42.632;23.440;2023-07-22T07:01:21;95156.81;;;50.42;13.32
68179;BME280;69812;42.632;23.440;2023-07-22T07:03:47;95161.06;;;50.71;13.43
68179;BME280;69812;42.632;23.440;2023-07-22T07:06:20;95142.25;;;51.97;12.39
68179;BME280;69812;42.632;23.440;2023-07-22T07:08:46;95132.81;;;52.54;11.58
68179;BME280;69812;42.632;23.440;2023-07-22T07:11:11;95139.06;;;53.62;10.78
68179;BME280;69812;42.632;23.440;2023-07-22T07:13:36;95140.09;;;54.26;10.72
68179;BME280;69812;42.632;23.440;2023-07-22T07:16:27;95145.84;;;55.42;9.92
68179;BME280;69812;42.632;23.440;2023-07-22T07:18:53;95141.03;;;55.83;9.77
68179;BME280;69812;42.632;23.440;2023-07-22T07:21:19;95136.75;;;56.14;9.34
68179;BME280;69812;42.632;23.440;2023-07-22T07:23:50;95144.59;;;56.16;8.93
68179;BME280;69812;42.632;23.440;2023-07-22T07:26:16;95130.69;;;56.69;9.38
68179;BME280;69812;42.632;23.440;2023-07-22T07:28:44;95135.81;;;56.37;9.61
68179;BME280;69812;42.632;23.440;2023-07-22T07:31:10;95129.78;;;56.43;9.51
68179;BME280;69812;42.632;23.440;2023-07-22T07:33:38;95126.63;;;56.73;9.05
68179;BME280;69812;42.632;23.440;2023-07-22T07:36:04;95119.38;;;57.64;8.43
68179;BME280;69812;42.632;23.440;2023-07-22T07:38:30;95116.38;;;57.96;8.22
68179;BME280;69812;42.632;23.440;2023-07-22T07:41:00;95116.94;;;56.98;8.72
68179;BME280;69812;42.632;23.440;2023-07-22T07:43:26;95110.31;;;57.08;8.52
68179;BME280;69812;42.632;23.440;2023-07-22T07:48:47;95117.91;;;58.58;7.78
68179;BME280;69812;42.632;23.440;2023-07-22T07:51:16;95113.09;;;58.36;7.77
68179;BME280;69812;42.632;23.440;2023-07-22T07:53:49;95110.28;;;55.51;9.62
68179;BME280;69812;42.632;23.440;2023-07-22T07:56:16;95105.66;;;55.65;9.11
68179;BME280;69812;42.632;23.440;2023-07-22T07:58:46;95109.13;;;55.85;9.78
68179;BME280;69812;42.632;23.440;2023-07-22T08:01:12;95105.31;;;53.92;10.25
68179;BME280;69812;42.632;23.440;2023-07-22T08:03:39;95094.97;;;52.46;11.26
68179;BME280;69812;42.632;23.440;2023-07-22T08:06:10;95096.44;;;51.49;11.43
68179;BME280;69812;42.632;23.440;2023-07-22T08:08:36;95086.06;;;51.01;12.03
68179;BME280;69812;42.632;23.440;2023-07-22T08:11:04;95087.63;;;50.99;12.14
68179;BME280;69812;42.632;23.440;2023-07-22T08:13:33;95078.34;;;50.74;12.30
68179;BME280;69812;42.632;23.440;2023-07-22T08:16:17;95081.78;;;51.00;12.34
68179;BME280;69812;42.632;23.440;2023-07-22T08:18:50;95071.19;;;51.87;11.22
68179;BME280;69812;42.632;23.440;2023-07-22T08:21:19;95072.31;;;51.93;11.40
68179;BME280;69812;42.632;23.440;2023-07-22T08:23:49;95078.13;;;52.44;11.46
68179;BME280;69812;42.632;23.440;2023-07-22T08:26:17;95079.22;;;50.21;12.55
68179;BME280;69812;42.632;23.440;2023-07-22T08:28:52;95063.41;;;51.04;12.03
68179;BME280;69812;42.632;23.440;2023-07-22T08:31:20;95059.63;;;51.61;12.12
68179;BME280;69812;42.632;23.440;2023-07-22T08:33:45;95054.16;;;51.58;12.27
68179;BME280;69812;42.632;23.440;2023-07-22T08:36:16;95070.94;;;49.64;12.99
68179;BME280;69812;42.632;23.440;2023-07-22T08:38:43;95066.97;;;47.97;14.53
68179;BME280;69812;42.632;23.440;2023-07-22T08:41:14;95069.72;;;44.87;17.57
68179;BME280;69812;42.632;23.440;2023-07-22T08:43:41;95062.16;;;42.41;20.30
68179;BME280;69812;42.632;23.440;2023-07-22T08:46:12;95051.59;;;40.78;21.32
68179;BME280;69812;42.632;23.440;2023-07-22T08:48:41;95037.78;;;39.52;22.96
68179;BME280;69812;42.632;23.440;2023-07-22T08:51:15;95048.34;;;40.04;23.19
68179;BME280;69812;42.632;23.440;2023-07-22T08:53:45;95042.94;;;40.72;21.89
68179;BME280;69812;42.632;23.440;2023-07-22T08:56:20;95033.63;;;40.40;22.61
68179;BME280;69812;42.632;23.440;2023-07-22T08:59:07;95022.81;;;38.63;24.49
68179;BME280;69812;42.632;23.440;2023-07-22T09:01:35;95011.41;;;36.84;27.50
68179;BME280;69812;42.632;23.440;2023-07-22T09:04:10;95014.41;;;35.91;28.83
68179;BME280;69812;42.632;23.440;2023-07-22T09:06:38;95016.59;;;35.09;30.37
68179;BME280;69812;42.632;23.440;2023-07-22T09:09:08;95019.06;;;34.49;31.77
68179;BME280;69812;42.632;23.440;2023-07-22T09:11:34;95013.00;;;34.43;31.33
68179;BME280;69812;42.632;23.440;2023-07-22T09:14:03;95001.72;;;34.51;30.85
68179;BME280;69812;42.632;23.440;2023-07-22T09:16:32;95013.38;;;34.55;30.94
68179;BME280;69812;42.632;23.440;2023-07-22T09:19:00;95016.50;;;34.20;31.08
68179;BME280;69812;42.632;23.440;2023-07-22T09:21:26;95018.97;;;34.11;32.38
68179;BME280;69812;42.632;23.440;2023-07-22T09:23:55;95013.66;;;33.63;32.66
68179;BME280;69812;42.632;23.440;2023-07-22T09:26:26;95012.09;;;33.56;33.65
68179;BME280;69812;42.632;23.440;2023-07-22T09:28:56;95006.47;;;33.63;32.75
68179;BME280;69812;42.632;23.440;2023-07-22T09:31:27;94993.00;;;33.79;33.62
68179;BME280;69812;42.632;23.440;2023-07-22T09:34:27;95003.22;;;33.42;33.74
68179;BME280;69812;42.632;23.440;2023-07-22T09:36:54;95000.63;;;33.32;34.57
68179;BME280;69812;42.632;23.440;2023-07-22T09:39:23;95001.66;;;33.02;34.96
68179;BME280;69812;42.632;23.440;2023-07-22T09:41:49;95003.47;;;32.72;35.03
68179;BME280;69812;42.632;23.440;2023-07-22T09:44:17;95015.00;;;32.97;35.49
68179;BME280;69812;42.632;23.440;2023-07-22T09:46:47;94987.97;;;32.84;35.39
68179;BME280;69812;42.632;23.440;2023-07-22T09:49:15;94998.84;;;33.22;34.46
68179;BME280;69812;42.632;23.440;2023-07-22T09:51:50;94988.84;;;33.14;34.77
68179;BME280;69812;42.632;23.440;2023-07-22T09:54:19;94994.59;;;33.50;34.04
68179;BME280;69812;42.632;23.440;2023-07-22T09:56:52;94993.69;;;33.36;34.72
68179;BME280;69812;42.632;23.440;2023-07-22T09:59:18;94981.44;;;33.35;34.08
68179;BME280;69812;42.632;23.440;2023-07-22T10:01:46;94971.84;;;33.39;33.72
68179;BME280;69812;42.632;23.440;2023-07-22T10:04:23;94985.19;;;33.63;33.56
68179;BME280;69812;42.632;23.440;2023-07-22T10:06:53;94982.66;;;33.96;33.38
68179;BME280;69812;42.632;23.440;2023-07-22T10:09:26;94972.34;;;33.70;33.70
68179;BME280;69812;42.632;23.440;2023-07-22T10:11:58;94970.69;;;33.21;34.20
68179;BME280;69812;42.632;23.440;2023-07-22T10:14:24;94974.59;;;33.29;34.04
68179;BME280;69812;42.632;23.440;2023-07-22T10:16:53;94975.16;;;33.55;33.96
68179;BME280;69812;42.632;23.440;2023-07-22T10:19:21;94981.16;;;33.37;33.47
68179;BME280;69812;42.632;23.440;2023-07-22T10:22:02;94983.09;;;33.60;33.26
68179;BME280;69812;42.632;23.440;2023-07-22T10:24:29;94985.53;;;33.81;32.27
68179;BME280;69812;42.632;23.440;2023-07-22T10:27:04;94980.34;;;33.70;32.50
68179;BME280;69812;42.632;23.440;2023-07-22T10:29:36;94984.66;;;33.85;31.91
68179;BME280;69812;42.632;23.440;2023-07-22T10:32:08;94974.56;;;34.06;30.97
68179;BME280;69812;42.632;23.440;2023-07-22T10:34:44;94970.09;;;34.26;31.64
68179;BME280;69812;42.632;23.440;2023-07-22T10:37:09;94978.31;;;34.48;30.81
68179;BME280;69812;42.632;23.440;2023-07-22T10:39:45;94980.75;;;34.26;30.94
68179;BME280;69812;42.632;23.440;2023-07-22T10:42:24;94956.56;;;34.41;29.72
68179;BME280;69812;42.632;23.440;2023-07-22T10:44:53;94974.06;;;34.85;29.26
68179;BME280;69812;42.632;23.440;2023-07-22T10:47:33;94966.38;;;34.97;27.63
68179;BME280;69812;42.632;23.440;2023-07-22T10:50:06;94962.84;;;35.02;27.56
68179;BME280;69812;42.632;23.440;2023-07-22T10:52:43;94964.03;;;35.29;28.09
68179;BME280;69812;42.632;23.440;2023-07-22T10:55:19;94966.59;;;35.20;27.01
68179;BME280;69812;42.632;23.440;2023-07-22T10:57:54;94959.38;;;35.02;28.17
68179;BME280;69812;42.632;23.440;2023-07-22T11:00:21;94947.78;;;35.11;27.20
68179;BME280;69812;42.632;23.440;2023-07-22T11:03:13;94961.16;;;34.92;28.50
68179;BME280;69812;42.632;23.440;2023-07-22T11:05:50;94962.44;;;35.09;27.86
68179;BME280;69812;42.632;23.440;2023-07-22T11:08:35;94952.94;;;35.22;27.76
68179;BME280;69812;42.632;23.440;2023-07-22T11:11:03;94932.53;;;35.45;26.75
68179;BME280;69812;42.632;23.440;2023-07-22T11:13:31;94943.63;;;35.66;27.03
68179;BME280;69812;42.632;23.440;2023-07-22T11:16:13;94936.97;;;35.63;25.99
68179;BME280;69812;42.632;23.440;2023-07-22T11:18:48;94927.66;;;35.61;26.83
68179;BME280;69812;42.632;23.440;2023-07-22T11:21:17;94942.13;;;35.73;27.46
68179;BME280;69812;42.632;23.440;2023-07-22T11:23:45;94931.06;;;35.80;25.94
68179;BME280;69812;42.632;23.440;2023-07-22T11:26:13;94933.91;;;35.97;25.83
68179;BME280;69812;42.632;23.440;2023-07-22T11:28:39;94914.81;;;36.18;25.86
68179;BME280;69812;42.632;23.440;2023-07-22T11:31:12;94925.78;;;36.16;26.33
68179;BME280;69812;42.632;23.440;2023-07-22T11:33:39;94920.78;;;36.37;24.50
68179;BME280;69812;42.632;23.440;2023-07-22T11:36:05;94923.13;;;36.39;23.87
68179;BME280;69812;42.632;23.440;2023-07-22T11:38:30;94904.00;;;36.23;24.51
68179;BME280;69812;42.632;23.440;2023-07-22T11:40:55;94902.50;;;36.31;24.02
68179;BME280;69812;42.632;23.440;2023-07-22T11:43:40;94893.50;;;36.27;23.67
68179;BME280;69812;42.632;23.440;2023-07-22T11:46:06;94898.06;;;36.49;24.34
68179;BME280;69812;42.632;23.440;2023-07-22T11:48:32;94878.53;;;36.62;23.71
68179;BME280;69812;42.632;23.440;2023-07-22T11:51:00;94887.16;;;36.59;22.74
68179;BME280;69812;42.632;23.440;2023-07-22T11:53:35;94882.66;;;36.46;23.46
68179;BME280;69812;42.632;23.440;2023-07-22T11:56:06;94894.56;;;36.39;24.02
68179;BME280;69812;42.632;23.440;2023-07-22T11:58:35;94887.19;;;36.45;23.58
68179;BME280;69812;42.632;23.440;2023-07-22T12:01:02;94896.16;;;36.63;23.87
68179;BME280;69812;42.632;23.440;2023-07-22T12:03:32;94884.06;;;36.66;22.85
68179;BME280;69812;42.632;23.440;2023-07-22T12:06:03;94881.44;;;36.74;23.08
68179;BME280;69812;42.632;23.440;2023-07-22T12:08:44;94874.47;;;36.65;24.31
68179;BME280;69812;42.632;23.440;2023-07-22T12:11:43;94888.22;;;36.58;23.51
68179;BME280;69812;42.632;23.440;2023-07-22T12:14:10;94878.59;;;36.71;23.58
68179;BME280;69812;42.632;23.440;2023-07-22T12:16:42;94865.94;;;36.63;24.01
68179;BME280;69812;42.632;23.440;2023-07-22T12:19:11;94865.22;;;36.48;24.40
68179;BME280;69812;42.632;23.440;2023-07-22T12:21:39;94875.41;;;36.46;24.12
68179;BME280;69812;42.632;23.440;2023-07-22T12:24:07;94870.13;;;36.55;24.53
68179;BME280;69812;42.632;23.440;2023-07-22T12:26:37;94861.03;;;36.33;24.40
68179;BME280;69812;42.632;23.440;2023-07-22T12:29:02;94864.66;;;36.01;23.82
68179;BME280;69812;42.632;23.440;2023-07-22T12:31:28;94867.38;;;36.24;24.23
68179;BME280;69812;42.632;23.440;2023-07-22T12:33:56;94871.41;;;36.57;23.92
68179;BME280;69812;42.632;23.440;2023-07-22T12:36:22;94844.84;;;36.84;24.13
68179;BME280;69812;42.632;23.440;2023-07-22T12:39:00;94852.69;;;36.80;22.63
68179;BME280;69812;42.632;23.440;2023-07-22T12:41:26;94855.63;;;36.70;23.44
68179;BME280;69812;42.632;23.440;2023-07-22T12:44:04;94866.00;;;36.71;24.24
68179;BME280;69812;42.632;23.440;2023-07-22T12:46:38;94854.75;;;37.14;24.13
68179;BME280;69812;42.632;23.440;2023-07-22T12:49:04;94865.31;;;37.59;22.40
68179;BME280;69812;42.632;23.440;2023-07-22T12:51:30;94853.41;;;38.00;22.38
68179;BME280;69812;42.632;23.440;2023-07-22T12:53:59;94857.66;;;37.84;21.72
68179;BME280;69812;42.632;23.440;2023-07-22T12:56:27;94861.56;;;37.78;22.92
68179;BME280;69812;42.632;23.440;2023-07-22T12:58:58;94852.97;;;38.07;22.59
68179;BME280;69812;42.632;23.440;2023-07-22T13:01:23;94849.47;;;37.98;22.86
68179;BME280;69812;42.632;23.440;2023-07-22T13:03:58;94845.56;;;37.95;22.50
68179;BME280;69812;42.632;23.440;2023-07-22T13:06:26;94849.13;;;37.73;22.68
68179;BME280;69812;42.632;23.440;2023-07-22T13:08:51;94849.31;;;37.28;22.42
68179;BME280;69812;42.632;23.440;2023-07-22T13:11:19;94823.16;;;37.16;22.94
68179;BME280;69812;42.632;23.440;2023-07-22T13:13:47;94837.09;;;37.05;22.91
68179;BME280;69812;42.632;23.440;2023-07-22T13:16:19;94835.34;;;36.69;23.46
68179;BME280;69812;42.632;23.440;2023-07-22T13:18:47;94824.81;;;36.72;24.10
68179;BME280;69812;42.632;23.440;2023-07-22T13:21:12;94829.09;;;36.82;22.73
68179;BME280;69812;42.632;23.440;2023-07-22T13:23:43;94823.19;;;36.94;22.99
68179;BME280;69812;42.632;23.440;2023-07-22T13:26:16;94815.44;;;37.24;22.97